Airfield :
LOGIN :

Register | Disclaimer

   EN    FR    IT 

 










Legend :    VFR   Marginal VFR   IFR   Intensive IFR   Very Intensive IFR
Visi :
Ceiling :
>= 8 km
>= 3000ft
5 to 8 km
1000 to 3000 ft
1500m to 5 km
500 to 1000 ft
800 to 1500m
200 to 500 ft
< 800m
< 200 ft
Symbols :   Thunderstorms  Fog  Heavy snow  Heavy precipitations  Wind > 20 kt
SIGMETs :     Misc.  Thunderstorms  Icing  Turbulence  Mountain Waves  Volcanic Ashes







- Airport Elevation : 138 ft
- IATA code : BIO


LEBB - Bilbao

CURRENT METAR :
  • 191330Z 00000KT CAVOK 15/06 Q1025 NOSIG

EXPIRED METARs :
  • 191300Z 00000KT CAVOK 14/07 Q1025 NOSIG
  • 191230Z 00000KT CAVOK 14/07 Q1025 NOSIG
  • 191200Z 00000KT CAVOK 13/07 Q1025 NOSIG
  • 191130Z VRB02KT CAVOK 11/08 Q1026 NOSIG
  • 191100Z VRB02KT 9999 FEW003 09/07 Q1026 NOSIG

TAF TAF LEBB
Valid from the 19 at 12:00 until the 20 at 12:00 UTC


191100Z 1912/2012 11005KT CAVOK TX15/2012Z TN02/2007Z
PROB30
TEMPO 2002/2008 3000 BR
No reported NOTAMs for that airfield.



MET'MAP, your aeronautical weather chart ! - Copyright ORBIFLY December 2007 - Disclaimer

ORBIFLY MET'MAP TEAM :

Programming & Development : Alexandra Zaïnal
Concept & Development : Baudouin d'Aumeries
Co-Development & Prog : Marc-Olivier Méhu
Technical & hardware support : Manuel Goepfert

Contact : metmap@orbifly.com




SOURCES & CREDITS :

   NOAA